createdAt,value
2023-03-03T00:00:24.847Z,20.35
2023-03-03T00:01:27.920Z,19.92
2023-03-03T00:02:29.977Z,25.75
2023-03-03T00:03:33.220Z,22.98
2023-03-03T00:04:35.388Z,24.25
2023-03-03T00:05:39.692Z,21.67
2023-03-03T00:06:41.803Z,17.70
2023-03-03T00:07:45.309Z,25.63
2023-03-03T00:08:48.457Z,21.60
2023-03-03T00:09:50.690Z,21.50
2023-03-03T00:10:55.526Z,25.67
2023-03-03T00:12:00.563Z,18.08
2023-03-03T00:13:04.262Z,21.25
2023-03-03T00:14:21.475Z,21.95
2023-03-03T00:15:25.111Z,17.40
2023-03-03T00:16:31.472Z,23.95
2023-03-03T00:17:34.478Z,30.65
2023-03-03T00:18:39.369Z,22.70
2023-03-03T00:19:42.431Z,30.40
2023-03-03T00:20:50.435Z,21.52
2023-03-03T00:21:58.228Z,21.30
2023-03-03T00:23:13.342Z,22.35
2023-03-03T00:24:22.417Z,20.25
2023-03-03T00:25:29.707Z,26.27
2023-03-03T00:26:37.438Z,26.45
2023-03-03T00:27:39.417Z,22.95
2023-03-03T00:28:47.166Z,26.83
2023-03-03T00:29:53.325Z,23.52
2023-03-03T00:30:58.872Z,22.70
2023-03-03T00:32:18.103Z,25.88
2023-03-03T00:33:33.046Z,26.40
2023-03-03T00:34:36.691Z,22.77
2023-03-03T00:35:39.673Z,18.30
2023-03-03T00:36:43.513Z,24.98
2023-03-03T00:37:46.741Z,22.02
2023-03-03T00:38:49.048Z,20.50
2023-03-03T00:39:52.015Z,21.30
2023-03-03T00:40:55.078Z,20.10
2023-03-03T00:41:57.688Z,21.70
2023-03-03T00:43:01.619Z,20.50
2023-03-03T00:44:32.442Z,23.45
2023-03-03T00:45:44.452Z,22.80
2023-03-03T00:46:46.372Z,21.80
2023-03-03T00:47:49.549Z,20.20
2023-03-03T00:48:53.236Z,23.50
2023-03-03T00:49:59.444Z,24.13
2023-03-03T00:51:09.759Z,25.48
2023-03-03T00:52:16.158Z,23.63
2023-03-03T00:53:20.579Z,20.27
2023-03-03T00:54:22.550Z,22.33
2023-03-03T00:55:24.498Z,15.43
2023-03-03T00:56:27.974Z,25.63
2023-03-03T00:57:30.125Z,17.45
2023-03-03T00:58:33.048Z,18.85
2023-03-03T00:59:35.057Z,27.17
2023-03-03T01:00:38.997Z,23.48
2023-03-03T01:01:41.004Z,23.42
2023-03-03T01:02:46.552Z,23.73
2023-03-03T01:03:49.517Z,22.52
2023-03-03T01:04:53.395Z,20.13
2023-03-03T01:05:56.648Z,22.15
2023-03-03T01:06:58.715Z,23.75
2023-03-03T01:08:03.480Z,21.35
2023-03-03T01:09:05.476Z,28.65
2023-03-03T01:10:09.547Z,19.63
2023-03-03T01:11:16.369Z,23.00
2023-03-03T01:12:19.399Z,24.75
2023-03-03T01:13:24.725Z,22.48
2023-03-03T01:14:28.008Z,19.77
2023-03-03T01:15:30.038Z,20.08
2023-03-03T01:16:33.016Z,22.23
2023-03-03T01:17:35.234Z,22.20
2023-03-03T01:18:40.259Z,19.05
2023-03-03T01:19:42.216Z,22.85
2023-03-03T01:20:45.290Z,25.27
2023-03-03T01:21:47.227Z,28.20
2023-03-03T01:22:50.159Z,24.33
2023-03-03T01:23:54.444Z,16.77
2023-03-03T01:24:57.973Z,22.30
2023-03-03T01:26:01.764Z,23.67
2023-03-03T01:27:03.780Z,24.85
2023-03-03T01:28:07.191Z,24.48
2023-03-03T01:29:09.318Z,24.13
2023-03-03T01:30:13.012Z,21.50
2023-03-03T01:31:14.994Z,25.02
2023-03-03T01:32:18.149Z,18.85
2023-03-03T01:33:20.145Z,21.90
2023-03-03T01:34:23.168Z,28.25
2023-03-03T01:35:25.265Z,21.73
2023-03-03T01:36:30.226Z,24.95
2023-03-03T01:37:34.012Z,23.50
2023-03-03T01:38:37.520Z,20.05
2023-03-03T01:39:40.958Z,19.70
2023-03-03T01:40:43.911Z,25.52
2023-03-03T01:41:45.870Z,26.88
2023-03-03T01:42:48.840Z,24.65
2023-03-03T01:43:51.376Z,25.83
2023-03-03T01:45:14.115Z,24.13
2023-03-03T01:46:33.428Z,24.80
2023-03-03T01:47:36.414Z,20.10
2023-03-03T01:48:41.075Z,21.77
2023-03-03T01:49:47.636Z,23.65
2023-03-03T01:50:54.783Z,23.20
2023-03-03T01:52:02.161Z,22.10
2023-03-03T01:53:07.027Z,20.13
2023-03-03T01:54:15.897Z,22.20
2023-03-03T01:55:22.762Z,22.15
2023-03-03T01:56:26.868Z,31.42
2023-03-03T01:57:33.901Z,19.80
2023-03-03T01:58:39.948Z,28.45
2023-03-03T01:59:47.596Z,22.05
2023-03-03T02:00:51.596Z,23.00
2023-03-03T02:01:54.988Z,30.20
2023-03-03T02:02:57.024Z,22.42
2023-03-03T02:04:00.587Z,26.13
2023-03-03T02:05:02.528Z,21.48
2023-03-03T02:06:08.809Z,22.17
2023-03-03T02:07:11.801Z,13.32
2023-03-03T02:08:18.192Z,12.65
2023-03-03T02:09:27.246Z,5.75
2023-03-03T02:10:32.454Z,5.28
2023-03-03T02:11:37.802Z,13.10
2023-03-03T02:12:44.785Z,3.38
2023-03-03T02:13:46.877Z,6.93
2023-03-03T02:14:49.843Z,4.03
2023-03-03T02:15:52.148Z,20.77
2023-03-03T02:16:55.165Z,4.80
2023-03-03T02:17:59.637Z,4.68
2023-03-03T02:19:02.708Z,3.53
2023-03-03T02:20:12.622Z,10.90
2023-03-03T02:21:17.996Z,1.20
2023-03-03T02:22:30.003Z,6.97
2023-03-03T02:23:39.641Z,5.70
2023-03-03T02:24:45.371Z,3.03
2023-03-03T02:25:58.434Z,9.65
2023-03-03T02:27:02.456Z,2.83
2023-03-03T02:28:05.858Z,2.45
2023-03-03T02:29:08.448Z,4.25
2023-03-03T02:30:17.216Z,7.35
2023-03-03T02:31:21.593Z,3.67
2023-03-03T02:32:24.636Z,1.60
2023-03-03T02:33:27.225Z,1.83
2023-03-03T02:34:30.190Z,2.85
2023-03-03T02:35:33.915Z,5.03
2023-03-03T02:36:38.964Z,2.20
2023-03-03T02:37:42.013Z,6.55
2023-03-03T02:38:50.994Z,10.82
2023-03-03T02:39:53.010Z,6.55
2023-03-03T02:41:04.790Z,4.45
2023-03-03T02:42:13.960Z,5.40
2023-03-03T02:43:20.447Z,2.75
2023-03-03T02:44:24.232Z,5.72
2023-03-03T02:45:27.280Z,2.47
2023-03-03T02:46:33.897Z,5.00
2023-03-03T02:47:37.198Z,4.57
2023-03-03T02:48:39.131Z,2.92
2023-03-03T02:49:42.898Z,5.75
2023-03-03T02:50:44.834Z,3.50
2023-03-03T02:51:47.830Z,6.95
2023-03-03T02:52:50.095Z,2.60
2023-03-03T02:53:53.303Z,3.30
2023-03-03T02:54:55.264Z,3.97
2023-03-03T02:55:58.263Z,3.47
2023-03-03T02:57:00.825Z,7.97
2023-03-03T02:58:05.160Z,5.15
2023-03-03T02:59:08.582Z,3.35
2023-03-03T03:00:11.636Z,4.60
2023-03-03T03:01:14.604Z,2.17
2023-03-03T03:02:16.562Z,5.13
2023-03-03T03:03:19.471Z,7.25
2023-03-03T03:04:23.557Z,3.50
2023-03-03T03:05:26.547Z,5.25
2023-03-03T03:06:28.479Z,5.68
2023-03-03T03:07:31.748Z,7.97
2023-03-03T03:08:33.722Z,2.63
2023-03-03T03:09:36.648Z,5.45
2023-03-03T03:10:39.584Z,1.15
2023-03-03T03:11:42.810Z,15.35
2023-03-03T03:12:45.076Z,3.63
2023-03-03T03:13:49.378Z,2.08
2023-03-03T03:14:51.302Z,5.03
2023-03-03T03:15:54.251Z,2.90
2023-03-03T03:16:56.398Z,0.82
2023-03-03T03:17:59.353Z,3.83
2023-03-03T03:19:02.037Z,2.50
2023-03-03T03:20:05.375Z,6.22
2023-03-03T03:21:09.439Z,1.25
2023-03-03T03:22:12.370Z,0.55
2023-03-03T03:23:14.764Z,3.10
2023-03-03T03:24:18.169Z,3.58
2023-03-03T03:25:20.120Z,2.25
2023-03-03T03:26:23.781Z,7.32
2023-03-03T03:27:25.741Z,3.22
2023-03-03T03:28:28.751Z,13.40
2023-03-03T03:29:32.089Z,21.10
2023-03-03T03:30:36.377Z,26.75
2023-03-03T03:31:39.267Z,26.60
2023-03-03T03:32:42.453Z,19.40
2023-03-03T03:33:44.379Z,23.33
2023-03-03T03:34:47.353Z,24.30
2023-03-03T03:35:50.435Z,30.90
2023-03-03T03:36:53.444Z,25.58
2023-03-03T03:37:55.459Z,20.27
2023-03-03T03:38:58.452Z,24.10
2023-03-03T03:40:00.371Z,21.90
2023-03-03T03:41:04.224Z,22.40
2023-03-03T03:42:06.242Z,20.25
2023-03-03T03:43:09.481Z,18.67
2023-03-03T03:44:11.488Z,20.50
2023-03-03T03:45:16.015Z,26.55
2023-03-03T03:46:18.027Z,19.83
2023-03-03T03:47:20.975Z,21.75
2023-03-03T03:48:22.953Z,23.00
2023-03-03T03:49:25.951Z,21.38
2023-03-03T03:50:27.978Z,20.25
2023-03-03T03:51:31.546Z,17.08
2023-03-03T03:52:33.506Z,19.02
2023-03-03T03:53:36.451Z,19.25
2023-03-03T03:54:38.447Z,21.60
2023-03-03T03:55:41.440Z,18.45
2023-03-03T03:56:43.458Z,21.40
2023-03-03T03:57:46.422Z,19.75
2023-03-03T03:58:48.367Z,21.38
2023-03-03T03:59:52.092Z,20.60
2023-03-03T04:00:55.818Z,24.58
2023-03-03T04:01:58.883Z,22.77
2023-03-03T04:03:01.069Z,24.48
2023-03-03T04:04:05.034Z,21.52
2023-03-03T04:05:08.073Z,23.05
2023-03-03T04:06:10.985Z,19.77
2023-03-03T04:07:13.194Z,18.13
2023-03-03T04:08:16.132Z,27.65
2023-03-03T04:09:18.079Z,23.52
2023-03-03T04:10:21.005Z,16.15
2023-03-03T04:11:23.316Z,20.13
2023-03-03T04:12:26.261Z,23.45
2023-03-03T04:13:29.001Z,19.60
2023-03-03T04:14:32.080Z,22.55
2023-03-03T04:15:34.164Z,24.17
2023-03-03T04:16:38.556Z,19.98
2023-03-03T04:17:40.873Z,24.55
2023-03-03T04:18:46.453Z,21.58
2023-03-03T04:19:48.754Z,16.85
2023-03-03T04:20:52.785Z,21.48
2023-03-03T04:21:54.747Z,22.83
2023-03-03T04:22:57.989Z,10.55
2023-03-03T04:23:59.969Z,17.23
2023-03-03T04:25:05.577Z,22.02
2023-03-03T04:26:07.853Z,20.77
2023-03-03T04:27:12.279Z,22.95
2023-03-03T04:28:14.341Z,23.13
2023-03-03T04:29:17.347Z,24.27
2023-03-03T04:30:19.420Z,21.30
2023-03-03T04:31:22.379Z,20.88
2023-03-03T04:32:25.844Z,23.98
2023-03-03T04:33:28.869Z,17.40
2023-03-03T04:34:30.822Z,25.75
2023-03-03T04:35:33.818Z,23.77
2023-03-03T04:36:36.751Z,24.65
2023-03-03T04:37:39.117Z,17.02
2023-03-03T04:38:42.064Z,17.65
2023-03-03T04:39:44.072Z,25.55
2023-03-03T04:40:47.001Z,18.25
2023-03-03T04:41:49.046Z,17.33
2023-03-03T04:42:52.065Z,25.65
2023-03-03T04:43:53.979Z,23.23
2023-03-03T04:44:56.900Z,19.80
2023-03-03T04:45:58.868Z,21.77
2023-03-03T04:47:01.780Z,22.38
2023-03-03T04:48:05.844Z,19.42
2023-03-03T04:49:11.378Z,17.70
2023-03-03T04:50:14.367Z,24.63
2023-03-03T04:51:18.626Z,22.77
2023-03-03T04:52:20.849Z,23.00
2023-03-03T04:53:24.341Z,20.38
2023-03-03T04:54:26.354Z,21.77
2023-03-03T04:55:29.335Z,18.67
2023-03-03T04:56:31.629Z,19.02
2023-03-03T04:57:34.561Z,20.45
2023-03-03T04:58:37.111Z,22.80
2023-03-03T04:59:40.053Z,21.83
2023-03-03T05:00:41.998Z,20.35
2023-03-03T05:01:46.744Z,23.63
2023-03-03T05:02:48.987Z,25.85
2023-03-03T05:03:53.364Z,19.40
2023-03-03T05:04:55.422Z,20.77
2023-03-03T05:05:58.348Z,20.30
2023-03-03T05:07:00.341Z,19.30
2023-03-03T05:08:03.350Z,18.50
2023-03-03T05:09:05.389Z,23.27
2023-03-03T05:10:09.545Z,17.83
2023-03-03T05:11:11.590Z,20.88
2023-03-03T05:12:14.516Z,21.92
2023-03-03T05:13:17.361Z,19.40
2023-03-03T05:14:20.853Z,16.23
2023-03-03T05:15:22.862Z,21.25
2023-03-03T05:16:25.885Z,26.38
2023-03-03T05:17:27.834Z,17.77
2023-03-03T05:18:30.829Z,19.63
2023-03-03T05:19:34.968Z,18.88
2023-03-03T05:20:37.933Z,18.90
2023-03-03T05:21:42.377Z,25.77
2023-03-03T05:22:44.656Z,17.17
2023-03-03T05:23:47.574Z,18.35
2023-03-03T05:24:49.565Z,18.92
2023-03-03T05:25:52.793Z,19.10
2023-03-03T05:26:54.744Z,26.33
2023-03-03T05:27:57.677Z,14.45
2023-03-03T05:28:59.640Z,20.35
2023-03-03T05:30:02.646Z,21.90
2023-03-03T05:31:05.016Z,18.92
2023-03-03T05:32:08.001Z,16.38
2023-03-03T05:33:13.775Z,18.08
2023-03-03T05:34:16.781Z,18.58
2023-03-03T05:35:20.763Z,19.15
2023-03-03T05:36:23.886Z,20.50
2023-03-03T05:37:25.854Z,23.27
2023-03-03T05:38:28.875Z,19.00
2023-03-03T05:39:30.843Z,26.00
2023-03-03T05:40:34.233Z,20.80
2023-03-03T05:41:36.962Z,15.77
2023-03-03T05:42:41.351Z,19.55
2023-03-03T05:43:43.679Z,21.88
2023-03-03T05:44:46.613Z,17.73
2023-03-03T05:45:48.658Z,18.98
2023-03-03T05:46:51.612Z,20.92
2023-03-03T05:47:53.930Z,20.13
2023-03-03T05:48:56.835Z,18.63
2023-03-03T05:49:58.823Z,23.17
2023-03-03T05:51:03.090Z,20.67
2023-03-03T05:52:05.259Z,18.58
2023-03-03T05:53:08.190Z,20.65
2023-03-03T05:54:10.270Z,17.88
2023-03-03T05:55:13.158Z,16.90
2023-03-03T05:56:15.104Z,20.85
2023-03-03T05:57:18.049Z,19.30
2023-03-03T05:58:20.543Z,19.27
2023-03-03T05:59:23.496Z,18.67
2023-03-03T06:00:25.622Z,18.77
2023-03-03T06:01:40.378Z,18.45
2023-03-03T06:02:42.796Z,19.55
2023-03-03T06:03:45.789Z,16.45
2023-03-03T06:04:47.808Z,24.70
2023-03-03T06:05:51.102Z,20.40
2023-03-03T06:06:54.770Z,18.25
2023-03-03T06:08:08.163Z,20.65
2023-03-03T06:09:10.150Z,18.67
2023-03-03T06:10:13.482Z,19.33
2023-03-03T06:11:16.746Z,16.95
2023-03-03T06:12:19.965Z,18.15
2023-03-03T06:13:22.044Z,19.95
2023-03-03T06:14:27.059Z,16.55
2023-03-03T06:15:29.482Z,23.90
2023-03-03T06:16:32.470Z,16.60
2023-03-03T06:17:34.559Z,16.23
2023-03-03T06:18:37.538Z,17.23
2023-03-03T06:19:41.565Z,18.73
2023-03-03T06:20:44.564Z,19.42
2023-03-03T06:21:46.573Z,16.35
2023-03-03T06:22:50.883Z,19.27
2023-03-03T06:23:52.907Z,25.52
2023-03-03T06:24:55.905Z,20.05
2023-03-03T06:25:58.140Z,16.30
2023-03-03T06:27:01.245Z,16.40
2023-03-03T06:28:03.869Z,19.73
2023-03-03T06:29:07.134Z,22.30
2023-03-03T06:30:10.374Z,20.52
2023-03-03T06:31:13.298Z,23.42
2023-03-03T06:32:15.429Z,17.13
2023-03-03T06:33:18.462Z,18.88
2023-03-03T06:34:21.488Z,21.80
2023-03-03T06:35:23.483Z,20.70
2023-03-03T06:36:27.173Z,21.80
2023-03-03T06:37:29.365Z,21.13
2023-03-03T06:38:33.664Z,16.58
2023-03-03T06:39:35.714Z,19.45
2023-03-03T06:40:38.851Z,16.52
2023-03-03T06:41:40.772Z,18.00
2023-03-03T06:42:43.853Z,27.05
2023-03-03T06:43:46.220Z,19.95
2023-03-03T06:44:49.151Z,20.30
2023-03-03T06:45:51.117Z,17.70
2023-03-03T06:46:57.251Z,21.52
2023-03-03T06:48:00.201Z,24.75
2023-03-03T06:49:02.171Z,19.10
2023-03-03T06:50:05.711Z,16.60
2023-03-03T06:51:21.478Z,23.52
2023-03-03T06:52:26.400Z,21.50
2023-03-03T06:53:29.870Z,22.08
2023-03-03T06:54:33.249Z,19.05
2023-03-03T06:55:36.220Z,22.98
2023-03-03T06:56:39.184Z,20.63
2023-03-03T06:57:42.305Z,21.15
2023-03-03T06:58:44.253Z,14.73
2023-03-03T06:59:50.247Z,22.77
2023-03-03T07:00:55.900Z,16.98
2023-03-03T07:01:59.283Z,15.80
2023-03-03T07:03:08.026Z,19.35
2023-03-03T07:04:26.110Z,23.13
2023-03-03T07:05:29.103Z,22.13
2023-03-03T07:06:33.841Z,22.75
2023-03-03T07:07:35.804Z,36.00
2023-03-03T07:08:41.482Z,36.28
2023-03-03T07:09:47.803Z,34.50
2023-03-03T07:10:52.614Z,23.90
2023-03-03T07:12:00.890Z,25.17
2023-03-03T07:13:18.774Z,29.95
2023-03-03T07:14:22.189Z,19.65
2023-03-03T07:15:28.427Z,20.23
2023-03-03T07:16:31.394Z,20.48
2023-03-03T07:17:34.582Z,17.08
2023-03-03T07:18:40.772Z,21.05
2023-03-03T07:19:44.123Z,20.23
2023-03-03T07:20:47.065Z,20.00
2023-03-03T07:21:51.049Z,19.92
2023-03-03T07:22:53.981Z,23.63
2023-03-03T07:23:57.255Z,38.35
2023-03-03T07:25:01.992Z,32.65
2023-03-03T07:26:05.056Z,39.08
2023-03-03T07:27:15.074Z,34.08
2023-03-03T07:28:24.105Z,42.60
2023-03-03T07:29:27.956Z,26.90
2023-03-03T07:30:31.487Z,26.17
2023-03-03T07:31:37.648Z,25.05
2023-03-03T07:32:43.192Z,26.25
2023-03-03T07:33:46.259Z,26.70
2023-03-03T07:34:50.609Z,30.05
2023-03-03T07:35:55.254Z,49.85
2023-03-03T07:37:00.875Z,47.60
2023-03-03T07:38:03.081Z,44.85
2023-03-03T07:39:32.701Z,47.00
2023-03-03T07:40:40.048Z,41.03
2023-03-03T07:41:43.245Z,44.65
2023-03-03T07:42:46.163Z,42.17
2023-03-03T07:43:54.506Z,26.60
2023-03-03T07:44:59.634Z,23.40
2023-03-03T07:46:22.936Z,24.60
2023-03-03T07:47:27.717Z,23.42
2023-03-03T07:48:35.855Z,18.52
2023-03-03T07:49:39.715Z,20.25
2023-03-03T07:50:41.993Z,17.40
2023-03-03T07:51:45.812Z,22.85
2023-03-03T07:52:56.890Z,18.63
2023-03-03T07:54:17.719Z,23.17
2023-03-03T07:55:30.270Z,19.48
2023-03-03T07:56:36.457Z,18.10
2023-03-03T07:57:39.802Z,21.27
2023-03-03T07:58:43.514Z,17.17
2023-03-03T07:59:48.632Z,20.63
2023-03-03T08:01:27.437Z,21.40
2023-03-03T08:02:41.610Z,32.10
2023-03-03T08:03:46.718Z,21.58
2023-03-03T08:04:52.370Z,14.88
2023-03-03T08:05:54.452Z,17.60
2023-03-03T08:06:58.057Z,18.25
2023-03-03T08:08:22.990Z,18.85
2023-03-03T08:09:44.976Z,18.45
2023-03-03T08:10:50.908Z,23.05
2023-03-03T08:11:58.162Z,19.42
2023-03-03T08:13:06.453Z,19.05
2023-03-03T08:14:13.719Z,20.45
2023-03-03T08:15:20.964Z,20.70
2023-03-03T08:16:36.685Z,23.55
2023-03-03T08:17:40.380Z,17.90
2023-03-03T08:18:47.607Z,17.67
2023-03-03T08:19:51.258Z,27.67
2023-03-03T08:20:57.270Z,20.30
2023-03-03T08:22:03.479Z,19.02
2023-03-03T08:23:06.465Z,20.70
2023-03-03T08:24:09.461Z,19.73
2023-03-03T08:25:11.431Z,18.67
2023-03-03T08:26:14.978Z,19.50
2023-03-03T08:27:18.294Z,17.65
2023-03-03T08:28:22.643Z,22.70
2023-03-03T08:29:24.646Z,19.20
2023-03-03T08:30:27.610Z,23.58
2023-03-03T08:31:40.729Z,21.27
2023-03-03T08:32:43.870Z,24.92
2023-03-03T08:33:47.661Z,24.05
2023-03-03T08:34:49.577Z,24.98
2023-03-03T08:35:52.626Z,26.02
2023-03-03T08:36:58.090Z,24.35
2023-03-03T08:38:00.178Z,21.88
2023-03-03T08:39:03.697Z,19.95
2023-03-03T08:40:06.868Z,20.65
2023-03-03T08:41:09.931Z,21.25
2023-03-03T08:42:14.706Z,26.70
2023-03-03T08:43:22.651Z,19.67
2023-03-03T08:44:24.571Z,22.80
2023-03-03T08:45:28.187Z,23.90
2023-03-03T08:46:32.502Z,21.55
2023-03-03T08:47:34.484Z,21.70
2023-03-03T08:48:37.478Z,19.90
2023-03-03T08:49:40.001Z,24.48
2023-03-03T08:50:43.311Z,19.05
2023-03-03T08:51:45.213Z,23.88
2023-03-03T08:52:48.185Z,24.92
2023-03-03T08:53:51.063Z,22.83
2023-03-03T08:54:52.969Z,25.20
2023-03-03T08:55:56.254Z,22.17
2023-03-03T08:56:58.239Z,26.25
2023-03-03T08:58:01.346Z,23.15
2023-03-03T08:59:04.760Z,24.92
2023-03-03T09:00:10.566Z,22.83
2023-03-03T09:01:13.463Z,22.80
2023-03-03T09:02:17.175Z,23.50
2023-03-03T09:03:20.113Z,27.65
2023-03-03T09:04:22.172Z,26.17
2023-03-03T09:05:26.801Z,28.50
2023-03-03T09:06:28.846Z,23.23
2023-03-03T09:07:31.813Z,28.17
2023-03-03T09:08:35.356Z,23.92
2023-03-03T09:09:37.476Z,23.70
2023-03-03T09:10:41.401Z,24.90
2023-03-03T09:11:44.550Z,23.17
2023-03-03T09:12:48.357Z,21.58
2023-03-03T09:13:53.278Z,23.13
2023-03-03T09:14:58.529Z,28.63
2023-03-03T09:16:01.929Z,29.70
2023-03-03T09:17:21.511Z,24.10
2023-03-03T09:18:39.439Z,25.27
2023-03-03T09:19:41.408Z,29.17
2023-03-03T09:20:46.029Z,25.20
2023-03-03T09:21:49.541Z,22.98
2023-03-03T09:22:52.837Z,24.00
2023-03-03T09:23:57.060Z,28.23
2023-03-03T09:25:01.980Z,24.23
2023-03-03T09:26:28.031Z,24.42
2023-03-03T09:27:32.868Z,24.58
2023-03-03T09:28:35.449Z,27.45
2023-03-03T09:29:39.145Z,22.48
2023-03-03T09:30:48.790Z,23.00
2023-03-03T09:31:54.558Z,24.63
2023-03-03T09:32:59.043Z,23.67
2023-03-03T09:34:01.275Z,24.40
2023-03-03T09:35:28.008Z,21.25
2023-03-03T09:36:36.585Z,23.83
2023-03-03T09:37:40.487Z,25.48
2023-03-03T09:38:46.173Z,24.75
2023-03-03T09:39:50.271Z,21.58
2023-03-03T09:41:08.184Z,20.00
2023-03-03T09:42:29.139Z,25.25
2023-03-03T09:43:39.977Z,22.40
2023-03-03T09:45:01.150Z,21.63
2023-03-03T09:46:17.289Z,24.35
2023-03-03T09:47:45.204Z,23.08
2023-03-03T09:49:03.678Z,25.70
2023-03-03T09:50:16.938Z,22.42
2023-03-03T09:51:54.316Z,22.75
2023-03-03T09:53:08.057Z,23.45
2023-03-03T09:54:25.601Z,28.20
2023-03-03T09:55:42.071Z,25.23
2023-03-03T09:56:51.053Z,25.75
2023-03-03T09:58:16.561Z,22.35
2023-03-03T09:59:31.609Z,23.20
2023-03-03T10:00:44.568Z,22.63
2023-03-03T10:02:14.169Z,27.58
2023-03-03T10:03:46.458Z,22.15
2023-03-03T10:05:13.301Z,27.63
2023-03-03T10:06:26.307Z,20.88
2023-03-03T10:07:40.123Z,25.90
2023-03-03T10:08:56.964Z,24.95
2023-03-03T10:10:20.300Z,24.15
2023-03-03T10:11:27.776Z,23.88
2023-03-03T10:12:33.557Z,24.20
2023-03-03T10:13:46.487Z,31.25
2023-03-03T10:15:17.687Z,24.77
2023-03-03T10:16:38.671Z,26.27
2023-03-03T10:17:50.648Z,24.40
2023-03-03T10:18:59.433Z,23.67
2023-03-03T10:20:15.523Z,24.67
2023-03-03T10:21:25.746Z,19.17
2023-03-03T10:22:40.818Z,24.25
2023-03-03T10:23:58.830Z,22.80
2023-03-03T10:25:16.293Z,26.08
2023-03-03T10:26:44.266Z,22.42
2023-03-03T10:28:07.593Z,25.38
2023-03-03T10:29:24.481Z,25.45
2023-03-03T10:30:46.219Z,24.88
2023-03-03T10:32:13.541Z,25.27
2023-03-03T10:33:24.674Z,24.67
2023-03-03T10:34:43.094Z,26.45
2023-03-03T10:36:07.728Z,27.60
2023-03-03T10:37:18.750Z,26.00
2023-03-03T10:38:40.097Z,25.98
2023-03-03T10:39:57.339Z,28.63
2023-03-03T10:41:07.503Z,24.83
2023-03-03T10:42:31.230Z,24.75
2023-03-03T10:44:03.006Z,27.80
2023-03-03T10:45:35.117Z,21.50
2023-03-03T10:46:50.408Z,24.88
2023-03-03T10:48:17.593Z,24.55
2023-03-03T10:49:34.032Z,23.15
2023-03-03T10:50:46.498Z,24.17
2023-03-03T10:52:08.555Z,26.52
2023-03-03T10:53:23.382Z,23.90
2023-03-03T10:54:39.594Z,26.92
2023-03-03T10:55:53.084Z,30.08
2023-03-03T10:57:02.754Z,24.58
2023-03-03T10:58:28.480Z,26.60
2023-03-03T10:59:46.355Z,28.58
2023-03-03T11:00:54.047Z,23.70
2023-03-03T11:02:00.130Z,26.90
2023-03-03T11:03:49.849Z,27.08
2023-03-03T11:05:07.057Z,25.92
2023-03-03T11:06:16.881Z,26.90
2023-03-03T11:07:27.248Z,25.63
2023-03-03T11:08:35.271Z,29.30
2023-03-03T11:10:10.303Z,26.45
2023-03-03T11:11:22.274Z,26.67
2023-03-03T11:12:32.244Z,26.33
2023-03-03T11:13:44.554Z,24.23
2023-03-03T11:14:51.279Z,25.00
2023-03-03T11:16:14.750Z,22.30
2023-03-03T11:17:29.244Z,29.50
2023-03-03T11:18:42.787Z,22.35
2023-03-03T11:19:57.648Z,26.13
2023-03-03T11:21:10.258Z,23.10
2023-03-03T11:22:27.036Z,28.17
2023-03-03T11:23:49.832Z,23.67
2023-03-03T11:24:59.931Z,25.13
2023-03-03T11:26:11.166Z,27.42
2023-03-03T11:27:33.683Z,26.35
2023-03-03T11:28:49.342Z,24.50
2023-03-03T11:30:06.235Z,29.30
2023-03-03T11:31:17.275Z,24.13
2023-03-03T11:32:34.795Z,25.27
2023-03-03T11:33:44.992Z,24.20
2023-03-03T11:34:56.635Z,29.65
2023-03-03T11:36:12.720Z,28.55
2023-03-03T11:37:23.255Z,23.35
2023-03-03T11:38:34.820Z,23.73
2023-03-03T11:39:38.845Z,31.13
2023-03-03T11:40:48.603Z,23.15
2023-03-03T11:42:03.112Z,24.23
2023-03-03T11:43:18.592Z,22.60
2023-03-03T11:44:34.586Z,25.25
2023-03-03T11:45:42.734Z,24.02
2023-03-03T11:46:50.544Z,20.67
2023-03-03T11:47:58.325Z,24.80
2023-03-03T11:49:07.539Z,21.52
2023-03-03T11:50:17.356Z,27.65
2023-03-03T11:51:31.394Z,23.10
2023-03-03T11:52:45.899Z,20.98
2023-03-03T11:53:59.011Z,24.23
2023-03-03T11:55:07.746Z,20.83
2023-03-03T11:56:19.644Z,20.52
2023-03-03T11:57:27.999Z,23.38
2023-03-03T11:58:33.600Z,24.92
2023-03-03T11:59:43.998Z,23.88
2023-03-03T12:00:51.036Z,22.75
2023-03-03T12:01:57.669Z,38.33
2023-03-03T12:03:14.334Z,23.25
2023-03-03T12:04:23.144Z,21.73
2023-03-03T12:05:41.320Z,27.65
2023-03-03T12:07:12.903Z,22.52
2023-03-03T12:08:31.027Z,21.40
2023-03-03T12:09:44.396Z,22.42
2023-03-03T12:10:52.935Z,24.50
2023-03-03T12:12:05.198Z,19.17
2023-03-03T12:13:14.325Z,21.60
2023-03-03T12:14:33.044Z,24.45
2023-03-03T12:15:46.642Z,18.92
2023-03-03T12:16:55.099Z,24.83
2023-03-03T12:18:17.841Z,16.52
2023-03-03T12:19:31.473Z,17.42
2023-03-03T12:20:43.132Z,20.23
2023-03-03T12:22:04.153Z,19.02
2023-03-03T12:23:23.498Z,20.80
2023-03-03T12:24:41.361Z,23.90
2023-03-03T12:25:46.451Z,19.45
2023-03-03T12:26:55.453Z,20.48
2023-03-03T12:28:06.139Z,23.55
2023-03-03T12:29:20.443Z,27.13
2023-03-03T12:30:44.707Z,23.05
2023-03-03T12:31:52.554Z,29.40
2023-03-03T12:33:10.960Z,16.48
2023-03-03T12:34:19.944Z,21.73
2023-03-03T12:35:31.134Z,20.13
2023-03-03T12:36:55.860Z,24.52
2023-03-03T12:38:08.906Z,26.58
2023-03-03T12:39:33.736Z,22.33
2023-03-03T12:40:44.759Z,22.88
2023-03-03T12:41:58.998Z,24.42
2023-03-03T12:43:20.592Z,20.35
2023-03-03T12:44:28.072Z,19.58
2023-03-03T12:45:38.854Z,24.63
2023-03-03T12:46:47.346Z,24.95
2023-03-03T12:47:51.973Z,16.95
2023-03-03T12:48:54.884Z,17.58
2023-03-03T12:50:16.484Z,21.63
2023-03-03T12:51:28.847Z,20.90
2023-03-03T12:52:42.380Z,19.15
2023-03-03T12:54:04.062Z,25.40
2023-03-03T12:55:18.366Z,23.02
2023-03-03T12:56:27.568Z,21.23
2023-03-03T12:57:40.204Z,18.92
2023-03-03T12:58:50.964Z,22.95
2023-03-03T13:00:31.349Z,17.85
2023-03-03T13:01:49.894Z,18.77
2023-03-03T13:03:00.724Z,22.17
2023-03-03T13:04:10.734Z,21.48
2023-03-03T13:05:21.662Z,24.02
2023-03-03T13:06:29.941Z,24.45
2023-03-03T13:07:37.661Z,20.17
2023-03-03T13:09:03.844Z,23.80
2023-03-03T13:10:17.352Z,24.42
2023-03-03T13:11:43.726Z,18.20
2023-03-03T13:12:51.878Z,18.08
2023-03-03T13:14:03.878Z,32.00
2023-03-03T13:15:17.233Z,21.35
2023-03-03T13:16:40.339Z,21.73
2023-03-03T13:17:52.738Z,19.45
2023-03-03T13:19:00.516Z,16.90
2023-03-03T13:20:11.100Z,20.92
2023-03-03T13:21:19.282Z,20.13
2023-03-03T13:22:40.463Z,15.65
2023-03-03T13:23:51.364Z,19.70
2023-03-03T13:25:04.047Z,19.75
2023-03-03T13:26:13.296Z,22.33
2023-03-03T13:27:20.189Z,17.63
2023-03-03T13:28:29.609Z,20.58
2023-03-03T13:29:37.559Z,17.70
2023-03-03T13:30:45.964Z,17.85
2023-03-03T13:31:52.048Z,18.90
2023-03-03T13:33:01.674Z,17.92
2023-03-03T13:34:03.738Z,19.73
2023-03-03T13:35:10.197Z,19.17
2023-03-03T13:36:15.598Z,20.70
2023-03-03T13:37:22.479Z,18.13
2023-03-03T13:38:29.726Z,18.77
2023-03-03T13:39:35.805Z,18.65
2023-03-03T13:40:45.084Z,15.70
2023-03-03T13:41:56.987Z,15.80
2023-03-03T13:43:04.223Z,17.70
2023-03-03T13:44:13.089Z,19.05
2023-03-03T13:45:21.969Z,18.48
2023-03-03T13:46:37.564Z,17.67
2023-03-03T13:47:48.508Z,16.17
2023-03-03T13:49:09.443Z,17.48
2023-03-03T13:50:23.814Z,21.13
2023-03-03T13:51:37.622Z,17.55
2023-03-03T13:52:46.752Z,18.85
2023-03-03T13:53:55.083Z,17.73
2023-03-03T13:55:11.533Z,17.35
2023-03-03T13:56:32.007Z,18.33
2023-03-03T13:57:51.048Z,20.27
2023-03-03T13:59:01.807Z,17.83
2023-03-03T14:00:16.211Z,20.40
2023-03-03T14:01:27.031Z,17.92
2023-03-03T14:02:56.999Z,24.98
2023-03-03T14:04:07.178Z,23.25
2023-03-03T14:05:15.811Z,17.52
2023-03-03T14:06:21.588Z,20.38
2023-03-03T14:07:31.932Z,22.08
2023-03-03T14:08:51.518Z,23.85
2023-03-03T14:10:03.503Z,19.35
2023-03-03T14:11:12.594Z,19.23
2023-03-03T14:12:25.967Z,18.70
2023-03-03T14:13:41.812Z,16.58
2023-03-03T14:14:50.211Z,22.60
2023-03-03T14:15:59.134Z,15.88
2023-03-03T14:17:05.452Z,19.17
2023-03-03T14:18:24.989Z,19.90
2023-03-03T14:19:32.860Z,16.25
2023-03-03T14:20:39.117Z,21.05
2023-03-03T14:21:48.963Z,17.88
2023-03-03T14:22:55.978Z,18.85
2023-03-03T14:24:04.440Z,22.10
2023-03-03T14:25:08.862Z,18.17
2023-03-03T14:26:13.413Z,17.60
2023-03-03T14:27:25.802Z,14.80
2023-03-03T14:28:30.975Z,17.90
2023-03-03T14:29:33.621Z,15.65
2023-03-03T14:30:39.860Z,16.52